Mitchellville, Tennessee
Current Conditions -  °F | °C
As of 9:15 AM on Monday 24 Nov 2014 (Local Time) from KM91 Reporting Station
Overcast Overcast  
Wind Chill: 52°   Ceiling: 2800
Heat Index: 52°   Visibility: 10mi
Dew Point: 45°   Wind: 20mph
Humidity: 76%   Direction: 280°W
Pressure: 29.7"   Gusts: NA
Location:  36.63°N, 86.54°W
Report Text: KM91 241515Z AUTO 28017KT 10SM OVC028 11/07 A2970 RMK
Loading
Personal Weather Stations






























Interactive Weather Map New forecast layout! Learn more

10-Day Weather Forecast

Advertisements
Track Severe Weather on mobile